createdAt,value
2018-05-08T00:01:56.588Z,14.70
2018-05-08T00:04:24.417Z,14.60
2018-05-08T00:06:53.052Z,14.60
2018-05-08T00:09:20.860Z,14.60
2018-05-08T00:11:49.473Z,14.60
2018-05-08T00:14:17.724Z,14.60
2018-05-08T00:16:46.317Z,14.50
2018-05-08T00:19:14.923Z,14.60
2018-05-08T00:21:42.766Z,14.60
2018-05-08T00:24:11.548Z,14.50
2018-05-08T00:26:40.195Z,14.50
2018-05-08T00:29:08.025Z,14.50
2018-05-08T00:31:35.863Z,14.50
2018-05-08T00:34:04.478Z,14.40
2018-05-08T00:36:32.304Z,14.30
2018-05-08T00:39:00.146Z,14.30
2018-05-08T00:41:28.013Z,14.20
2018-05-08T00:43:55.854Z,14.10
2018-05-08T00:46:23.688Z,14.00
2018-05-08T00:48:52.286Z,13.90
2018-05-08T00:51:20.889Z,13.80
2018-05-08T00:53:48.708Z,13.80
2018-05-08T00:56:17.371Z,13.20
2018-05-08T00:58:45.205Z,13.20
2018-05-08T01:01:13.231Z,13.00
2018-05-08T01:03:41.040Z,13.00
2018-05-08T01:06:08.947Z,13.00
2018-05-08T01:08:36.876Z,13.00
2018-05-08T01:11:04.895Z,12.90
2018-05-08T01:13:32.920Z,12.80
2018-05-08T01:16:00.775Z,12.90
2018-05-08T01:18:28.676Z,12.90
2018-05-08T01:20:56.519Z,12.80
2018-05-08T01:26:58.769Z,12.50
2018-05-08T01:29:26.620Z,12.50
2018-05-08T01:31:54.459Z,12.40
2018-05-08T01:34:22.556Z,12.30
2018-05-08T01:36:50.386Z,12.30
2018-05-08T01:39:18.217Z,12.30
2018-05-08T01:41:46.977Z,12.20
2018-05-08T01:44:14.819Z,12.10
2018-05-08T01:46:42.667Z,12.20
2018-05-08T01:49:10.537Z,12.00
2018-05-08T01:51:38.391Z,12.00
2018-05-08T02:01:04.598Z,11.90
2018-05-08T02:03:32.460Z,11.80
2018-05-08T02:06:00.315Z,11.70
2018-05-08T02:08:28.165Z,11.80
2018-05-08T02:13:37.258Z,11.70
2018-05-08T02:16:05.100Z,11.70
2018-05-08T02:18:33.012Z,11.70
2018-05-08T02:21:01.624Z,11.50
2018-05-08T02:23:29.448Z,11.50
2018-05-08T02:25:57.357Z,11.50
2018-05-08T02:28:27.662Z,11.50
2018-05-08T02:37:03.662Z,11.40
2018-05-08T02:39:31.467Z,11.30
2018-05-08T02:41:59.336Z,11.20
2018-05-08T02:44:27.157Z,11.20
2018-05-08T02:46:55.768Z,11.10
2018-05-08T02:49:23.602Z,11.10
2018-05-08T02:51:51.458Z,11.00
2018-05-08T02:54:19.287Z,10.90
2018-05-08T02:56:47.128Z,10.90
2018-05-08T02:59:15.091Z,10.90
2018-05-08T03:01:43.580Z,10.90
2018-05-08T03:07:10.659Z,10.80
2018-05-08T03:09:38.647Z,10.80
2018-05-08T03:12:06.458Z,10.80
2018-05-08T03:14:37.468Z,10.60
2018-05-08T03:17:05.301Z,10.50
2018-05-08T03:19:33.131Z,10.50
2018-05-08T03:22:01.071Z,10.60
2018-05-08T03:24:28.902Z,10.50
2018-05-08T03:31:00.063Z,10.50
2018-05-08T03:33:27.888Z,10.60
2018-05-08T03:35:55.785Z,10.50
2018-05-08T03:38:23.676Z,10.30
2018-05-08T03:40:51.499Z,10.20
2018-05-08T03:43:20.105Z,10.00
2018-05-08T03:45:47.955Z,9.90
2018-05-08T03:48:15.842Z,9.90
2018-05-08T03:50:43.780Z,10.00
2018-05-08T03:53:12.466Z,10.10
2018-05-08T03:55:40.287Z,10.10
2018-05-08T03:58:08.108Z,10.00
2018-05-08T04:00:42.713Z,10.20
2018-05-08T04:03:16.428Z,10.20
2018-05-08T04:05:50.203Z,10.20
2018-05-08T04:08:23.808Z,10.20
2018-05-08T04:10:51.660Z,10.00
2018-05-08T04:13:19.560Z,10.00
2018-05-08T04:15:48.167Z,9.80
2018-05-08T04:18:16.750Z,9.90
2018-05-08T04:20:44.774Z,9.90
2018-05-08T04:23:12.597Z,9.90
2018-05-08T04:25:40.427Z,10.10
2018-05-08T04:28:08.262Z,10.10
2018-05-08T04:30:36.937Z,10.20
2018-05-08T04:33:09.331Z,10.30
2018-05-08T04:35:37.172Z,10.30
2018-05-08T04:38:04.998Z,10.40
2018-05-08T04:40:32.844Z,10.40
2018-05-08T04:43:00.660Z,10.50
2018-05-08T04:45:28.485Z,10.60
2018-05-08T04:47:56.487Z,10.60
2018-05-08T04:50:39.464Z,10.50
2018-05-08T04:53:07.330Z,10.50
2018-05-08T04:55:35.180Z,10.60
2018-05-08T04:58:03.012Z,10.70
2018-05-08T05:00:30.837Z,10.90
2018-05-08T05:02:58.819Z,11.00
2018-05-08T05:05:26.641Z,11.20
2018-05-08T05:07:55.308Z,11.40
2018-05-08T05:10:23.215Z,11.30
2018-05-08T05:12:51.036Z,11.50
2018-05-08T05:15:18.866Z,11.60
2018-05-08T05:17:46.849Z,11.70
2018-05-08T05:20:14.670Z,11.80
2018-05-08T05:22:42.548Z,11.90
2018-05-08T05:25:11.160Z,12.10
2018-05-08T05:27:38.991Z,12.10
2018-05-08T05:30:06.821Z,12.10
2018-05-08T05:35:15.717Z,12.20
2018-05-08T05:37:43.550Z,12.40
2018-05-08T05:40:12.240Z,12.80
2018-05-08T05:42:41.020Z,13.00
2018-05-08T05:45:08.843Z,12.90
2018-05-08T05:47:36.794Z,13.20
2018-05-08T05:50:04.679Z,13.40
2018-05-08T05:52:32.596Z,13.50
2018-05-08T05:55:00.450Z,13.50
2018-05-08T05:57:28.315Z,13.60
2018-05-08T05:59:56.938Z,14.00
2018-05-08T06:02:25.567Z,14.10
2018-05-08T06:04:53.389Z,14.00
2018-05-08T06:07:21.205Z,14.20
2018-05-08T06:09:49.127Z,14.20
2018-05-08T06:14:59.110Z,14.30
2018-05-08T06:17:27.225Z,14.40
2018-05-08T06:19:55.050Z,14.60
2018-05-08T06:22:22.976Z,14.80
2018-05-08T06:31:48.017Z,15.60
2018-05-08T06:41:13.394Z,16.20
2018-05-08T06:43:41.969Z,16.70
2018-05-08T06:46:09.860Z,16.70
2018-05-08T06:48:40.151Z,16.80
2018-05-08T06:51:08.031Z,17.00
2018-05-08T06:53:35.896Z,17.50
2018-05-08T06:56:04.571Z,18.40
2018-05-08T06:58:32.470Z,18.30
2018-05-08T07:01:01.065Z,19.30
2018-05-08T07:03:28.895Z,19.30
2018-05-08T07:05:56.716Z,20.20
2018-05-08T07:08:24.564Z,20.50
2018-05-08T07:10:52.815Z,21.60
2018-05-08T07:13:21.781Z,23.80
2018-05-08T07:15:50.059Z,23.80
2018-05-08T07:18:18.953Z,25.80
2018-05-08T07:20:47.134Z,25.70
2018-05-08T07:23:16.102Z,27.90
2018-05-08T07:25:44.325Z,27.80
2018-05-08T07:30:54.235Z,25.10
2018-05-08T07:33:22.432Z,26.10
2018-05-08T07:35:50.422Z,27.80
2018-05-08T07:38:19.163Z,28.00
2018-05-08T07:40:47.024Z,28.00
2018-05-08T07:43:14.859Z,27.90
2018-05-08T07:45:43.726Z,27.30
2018-05-08T07:48:12.511Z,27.50
2018-05-08T07:50:40.869Z,27.50
2018-05-08T07:53:08.817Z,28.00
2018-05-08T07:55:36.721Z,27.80
2018-05-08T07:58:04.567Z,26.70
2018-05-08T08:00:32.455Z,27.60
2018-05-08T08:03:00.283Z,26.90
2018-05-08T08:05:28.111Z,26.80
2018-05-08T08:07:56.760Z,28.10
2018-05-08T08:10:24.575Z,28.00
2018-05-08T08:21:42.308Z,30.60
2018-05-08T08:24:10.142Z,30.50
2018-05-08T08:26:38.086Z,31.30
2018-05-08T08:29:06.743Z,27.10
2018-05-08T08:37:02.711Z,28.10
2018-05-08T08:46:24.687Z,26.90
2018-05-08T08:48:52.524Z,28.10
2018-05-08T08:51:20.374Z,29.70
2018-05-08T08:53:50.130Z,26.80
2018-05-08T08:56:18.178Z,26.80
2018-05-08T08:58:47.006Z,25.30
2018-05-08T09:01:15.110Z,24.60
2018-05-08T09:03:42.925Z,24.70
2018-05-08T09:06:10.754Z,24.30
2018-05-08T09:08:38.598Z,23.80
2018-05-08T09:11:06.424Z,23.40
2018-05-08T09:17:06.259Z,23.80
2018-05-08T09:19:34.074Z,24.10
2018-05-08T09:22:01.890Z,23.50
2018-05-08T09:24:31.163Z,23.30
2018-05-08T09:26:59.019Z,23.10
2018-05-08T09:29:27.591Z,23.30
2018-05-08T09:31:55.402Z,23.30
2018-05-08T09:34:23.200Z,23.60
2018-05-08T09:36:51.039Z,23.50
2018-05-08T09:39:19.980Z,23.00
2018-05-08T09:41:47.789Z,22.90
2018-05-08T09:44:15.603Z,23.50
2018-05-08T09:46:43.495Z,23.60
2018-05-08T09:49:12.111Z,23.30
2018-05-08T09:51:39.946Z,23.30
2018-05-08T09:54:08.562Z,22.80
2018-05-08T09:56:36.450Z,22.70
2018-05-08T09:59:04.269Z,22.60
2018-05-08T10:01:32.872Z,23.30
2018-05-08T10:04:00.791Z,23.30
2018-05-08T10:06:28.607Z,23.40
2018-05-08T10:12:13.918Z,23.20
2018-05-08T10:14:41.841Z,22.90
2018-05-08T10:17:10.443Z,23.20
2018-05-08T10:19:38.432Z,23.20
2018-05-08T10:22:06.299Z,23.50
2018-05-08T10:24:36.876Z,23.50
2018-05-08T10:27:04.730Z,23.50
2018-05-08T10:29:32.621Z,23.50
2018-05-08T10:32:01.261Z,23.30
2018-05-08T10:34:29.102Z,23.30
2018-05-08T10:36:57.127Z,23.40
2018-05-08T10:39:25.012Z,23.30
2018-05-08T10:41:53.908Z,23.30
2018-05-08T10:44:22.516Z,23.00
2018-05-08T10:46:50.403Z,23.00
2018-05-08T10:49:18.328Z,23.30
2018-05-08T10:51:46.925Z,23.50
2018-05-08T10:54:14.801Z,23.50
2018-05-08T10:56:42.715Z,23.60
2018-05-08T10:59:10.696Z,23.30
2018-05-08T11:01:38.636Z,23.60
2018-05-08T11:04:06.669Z,23.30
2018-05-08T11:06:34.492Z,23.50
2018-05-08T11:09:02.323Z,23.30
2018-05-08T11:11:30.146Z,23.50
2018-05-08T11:13:58.856Z,23.60
2018-05-08T11:16:26.809Z,23.50
2018-05-08T11:21:37.107Z,23.20
2018-05-08T11:24:05.018Z,23.20
2018-05-08T11:26:32.867Z,23.40
2018-05-08T11:29:00.727Z,23.30
2018-05-08T11:31:28.541Z,23.60
2018-05-08T11:33:57.341Z,23.60
2018-05-08T11:36:25.187Z,23.50
2018-05-08T11:38:53.064Z,23.60
2018-05-08T11:41:21.672Z,23.60
2018-05-08T11:43:49.553Z,23.60
2018-05-08T11:46:17.427Z,23.70
2018-05-08T11:48:45.347Z,24.00
2018-05-08T11:51:14.139Z,24.50
2018-05-08T11:53:41.931Z,24.50
2018-05-08T11:56:09.804Z,24.20
2018-05-08T11:58:37.776Z,24.10
2018-05-08T12:01:05.669Z,24.10
2018-05-08T12:03:34.216Z,24.30
2018-05-08T12:08:43.676Z,24.20
2018-05-08T12:13:53.173Z,24.20
2018-05-08T12:16:21.060Z,24.20
2018-05-08T12:18:49.671Z,24.70
2018-05-08T12:21:17.561Z,24.60
2018-05-08T12:23:45.392Z,24.40
2018-05-08T12:26:13.987Z,24.60
2018-05-08T12:32:08.169Z,24.50
2018-05-08T12:34:36.817Z,24.40
2018-05-08T12:37:04.651Z,24.40
2018-05-08T12:39:32.516Z,24.50
2018-05-08T12:42:00.450Z,24.60
2018-05-08T12:44:29.063Z,25.10
2018-05-08T12:46:56.936Z,25.00
2018-05-08T12:49:24.935Z,25.10
2018-05-08T12:51:52.919Z,24.80
2018-05-08T12:54:22.394Z,24.80
2018-05-08T12:56:50.247Z,24.70
2018-05-08T12:59:18.348Z,24.70
2018-05-08T13:01:46.454Z,24.50
2018-05-08T13:04:14.268Z,25.00
2018-05-08T13:06:42.186Z,24.90
2018-05-08T13:09:10.015Z,25.30
2018-05-08T13:11:37.954Z,25.40
2018-05-08T13:14:05.792Z,26.20
2018-05-08T13:16:34.509Z,25.60
2018-05-08T13:19:02.347Z,25.60
2018-05-08T13:21:30.988Z,26.50
2018-05-08T13:23:58.876Z,26.60
2018-05-08T13:26:26.705Z,27.90
2018-05-08T13:28:54.596Z,28.30
2018-05-08T13:31:22.444Z,30.10
2018-05-08T13:33:50.272Z,30.90
2018-05-08T13:36:18.304Z,29.60
2018-05-08T13:38:46.222Z,30.30
2018-05-08T13:41:14.875Z,29.90
2018-05-08T13:43:42.714Z,29.90
2018-05-08T13:46:10.687Z,29.50
2018-05-08T13:48:38.579Z,30.20
2018-05-08T13:51:06.415Z,29.30
2018-05-08T13:53:34.341Z,29.70
2018-05-08T13:56:02.983Z,31.50
2018-05-08T13:58:30.886Z,31.50
2018-05-08T14:00:58.841Z,31.80
2018-05-08T14:03:26.615Z,31.30
2018-05-08T14:05:54.440Z,31.00
2018-05-08T14:08:22.282Z,30.10
2018-05-08T14:17:06.978Z,31.50
2018-05-08T14:19:35.683Z,32.00
2018-05-08T14:22:03.555Z,32.00
2018-05-08T14:24:31.384Z,32.30
2018-05-08T14:27:00.012Z,32.30
2018-05-08T14:29:27.843Z,32.30
2018-05-08T14:31:56.604Z,29.20
2018-05-08T14:34:25.199Z,31.00
2018-05-08T14:36:53.931Z,30.80
2018-05-08T14:39:21.960Z,30.70
2018-05-08T14:41:50.560Z,30.90
2018-05-08T14:44:18.404Z,30.80
2018-05-08T14:46:46.404Z,30.70
2018-05-08T14:51:55.119Z,30.20
2018-05-08T14:54:22.972Z,29.80
2018-05-08T14:56:51.564Z,28.50
2018-05-08T14:59:19.424Z,28.50
2018-05-08T15:01:48.031Z,27.10
2018-05-08T15:11:13.772Z,28.60
2018-05-08T15:13:41.634Z,28.30
2018-05-08T15:16:10.248Z,28.10
2018-05-08T15:18:38.100Z,28.10
2018-05-08T15:21:06.703Z,26.70
2018-05-08T15:23:34.535Z,26.70
2018-05-08T15:26:03.136Z,26.50
2018-05-08T15:28:31.750Z,26.40
2018-05-08T15:30:59.587Z,26.40
2018-05-08T15:33:27.646Z,26.00
2018-05-08T15:38:37.523Z,27.40
2018-05-08T15:41:05.496Z,27.40
2018-05-08T15:43:34.097Z,26.70
2018-05-08T15:46:02.106Z,26.70
2018-05-08T15:48:30.743Z,27.70
2018-05-08T15:50:58.580Z,27.70
2018-05-08T15:53:27.324Z,28.40
2018-05-08T15:58:36.139Z,28.70
2018-05-08T16:03:44.787Z,29.30
2018-05-08T16:06:12.612Z,29.60
2018-05-08T16:08:40.626Z,28.60
2018-05-08T16:11:08.461Z,27.70
2018-05-08T16:13:37.054Z,28.60
2018-05-08T16:16:04.899Z,28.60
2018-05-08T16:18:33.496Z,27.60
2018-05-08T16:21:02.138Z,26.90
2018-05-08T16:23:29.958Z,26.90
2018-05-08T16:25:57.803Z,26.30
2018-05-08T16:28:25.707Z,25.40
2018-05-08T16:30:53.532Z,25.30
2018-05-08T16:33:22.131Z,26.20
2018-05-08T16:35:50.723Z,26.00
2018-05-08T16:38:18.544Z,26.00
2018-05-08T16:40:46.412Z,26.30
2018-05-08T16:43:14.262Z,26.90
2018-05-08T16:45:42.134Z,26.00
2018-05-08T16:48:10.090Z,25.40
2018-05-08T16:50:38.411Z,25.70
2018-05-08T16:53:06.223Z,25.80
2018-05-08T16:55:34.052Z,25.60
2018-05-08T16:58:02.695Z,25.00
2018-05-08T17:00:30.532Z,25.00
2018-05-08T17:02:58.383Z,25.00
2018-05-08T17:05:26.389Z,24.70
2018-05-08T17:07:54.195Z,24.30
2018-05-08T17:10:22.845Z,24.40
2018-05-08T17:12:51.049Z,24.60
2018-05-08T17:15:19.664Z,24.10
2018-05-08T17:17:48.262Z,24.20
2018-05-08T17:20:16.090Z,24.20
2018-05-08T17:22:43.914Z,24.30
2018-05-08T17:25:11.760Z,24.20
2018-05-08T17:27:39.880Z,24.20
2018-05-08T17:30:07.689Z,24.00
2018-05-08T17:32:36.383Z,23.70
2018-05-08T17:35:04.275Z,23.60
2018-05-08T17:37:32.860Z,23.60
2018-05-08T17:40:00.954Z,23.50
2018-05-08T17:42:28.942Z,23.40
2018-05-08T17:44:56.761Z,23.20
2018-05-08T17:47:24.613Z,23.20
2018-05-08T17:49:52.440Z,23.20
2018-05-08T17:52:20.256Z,23.20
2018-05-08T17:54:48.114Z,23.10
2018-05-08T17:57:15.993Z,23.00
2018-05-08T17:59:43.839Z,22.90
2018-05-08T18:02:12.424Z,22.90
2018-05-08T18:04:41.023Z,22.90
2018-05-08T18:07:08.871Z,22.90
2018-05-08T18:09:37.602Z,22.70
2018-05-08T18:12:05.682Z,22.70
2018-05-08T18:14:33.570Z,22.70
2018-05-08T18:17:01.382Z,22.60
2018-05-08T18:19:29.212Z,22.70
2018-05-08T18:21:57.080Z,22.50
2018-05-08T18:27:27.600Z,22.50
2018-05-08T18:29:55.911Z,22.30
2018-05-08T18:32:23.730Z,22.20
2018-05-08T18:34:51.583Z,22.20
2018-05-08T18:37:19.442Z,22.10
2018-05-08T18:39:47.261Z,22.00
2018-05-08T18:42:15.214Z,21.90
2018-05-08T18:44:43.049Z,21.90
2018-05-08T18:47:10.876Z,21.80
2018-05-08T18:49:39.527Z,21.70
2018-05-08T18:52:07.335Z,21.70
2018-05-08T18:57:16.908Z,21.60
2018-05-08T18:59:44.834Z,21.60
2018-05-08T19:02:12.669Z,21.50
2018-05-08T19:04:40.885Z,21.40
2018-05-08T19:07:09.722Z,21.40
2018-05-08T19:09:38.405Z,21.40
2018-05-08T19:12:06.648Z,21.40
2018-05-08T19:14:35.251Z,21.30
2018-05-08T19:17:03.165Z,21.20
2018-05-08T19:19:37.412Z,21.20
2018-05-08T19:22:06.481Z,21.10
2018-05-08T19:24:35.255Z,21.00
2018-05-08T19:27:05.748Z,20.90
2018-05-08T19:29:39.421Z,20.90
2018-05-08T19:32:07.525Z,20.80
2018-05-08T19:34:40.999Z,20.70
2018-05-08T19:37:14.617Z,20.70
2018-05-08T19:39:42.875Z,20.70
2018-05-08T19:42:11.496Z,20.50
2018-05-08T19:44:39.425Z,20.50
2018-05-08T19:47:07.271Z,20.50
2018-05-08T19:49:35.074Z,20.50
2018-05-08T19:52:02.939Z,20.40
2018-05-08T19:54:31.540Z,20.30
2018-05-08T19:56:59.365Z,20.30
2018-05-08T19:59:28.179Z,20.10
2018-05-08T20:01:56.949Z,20.10
2018-05-08T20:17:07.475Z,19.80
2018-05-08T20:19:35.712Z,19.70
2018-05-08T20:22:03.582Z,19.70
2018-05-08T20:24:31.626Z,19.50
2018-05-08T20:27:00.236Z,19.50
2018-05-08T20:29:28.059Z,19.40
2018-05-08T20:31:56.852Z,19.30
2018-05-08T20:34:25.531Z,19.20
2018-05-08T20:36:54.140Z,19.10
2018-05-08T20:39:21.982Z,19.10
2018-05-08T20:41:50.631Z,19.00
2018-05-08T20:44:18.556Z,19.00
2018-05-08T20:46:47.157Z,18.90
2018-05-08T20:49:15.051Z,18.90
2018-05-08T20:51:42.828Z,18.90
2018-05-08T20:54:10.668Z,18.80
2018-05-08T20:56:38.658Z,18.80
2018-05-08T20:59:06.513Z,18.70
2018-05-08T21:01:34.370Z,18.40
2018-05-08T21:04:02.334Z,18.30
2018-05-08T21:06:30.172Z,18.00
2018-05-08T21:08:58.766Z,17.90
2018-05-08T21:11:26.616Z,17.80
2018-05-08T21:13:55.231Z,17.70
2018-05-08T21:16:23.069Z,17.70
2018-05-08T21:18:51.669Z,17.70
2018-05-08T21:21:20.261Z,17.70
2018-05-08T21:23:48.086Z,17.60
2018-05-08T21:26:16.067Z,17.50
2018-05-08T21:28:50.423Z,17.40
2018-05-08T21:31:18.263Z,17.30
2018-05-08T21:33:46.868Z,17.20
2018-05-08T21:36:14.700Z,17.20
2018-05-08T21:38:43.304Z,16.80
2018-05-08T21:41:11.907Z,16.80
2018-05-08T21:43:39.724Z,16.80
2018-05-08T21:46:08.347Z,16.70
2018-05-08T21:48:36.188Z,16.70
2018-05-08T21:51:04.779Z,16.60
2018-05-08T21:56:14.379Z,16.60
2018-05-08T21:58:42.172Z,16.50
2018-05-08T22:01:10.027Z,16.40
2018-05-08T22:03:39.199Z,16.40
2018-05-08T22:06:07.049Z,16.30
2018-05-08T22:08:34.883Z,16.10
2018-05-08T22:11:04.631Z,16.00
2018-05-08T22:13:32.462Z,16.00
2018-05-08T22:16:00.278Z,15.90
2018-05-08T22:18:28.119Z,15.90
2018-05-08T22:20:55.959Z,15.80
2018-05-08T22:23:24.557Z,15.70
2018-05-08T22:25:52.420Z,15.70
2018-05-08T22:28:21.003Z,15.60
2018-05-08T22:30:48.807Z,15.60
2018-05-08T22:33:16.696Z,15.70
2018-05-08T22:35:44.531Z,15.50
2018-05-08T22:38:12.360Z,15.50
2018-05-08T22:40:40.979Z,15.40
2018-05-08T22:43:08.788Z,15.30
2018-05-08T22:45:36.615Z,15.30
2018-05-08T22:51:41.778Z,15.20
2018-05-08T22:54:09.738Z,15.20
2018-05-08T22:56:37.599Z,15.20
2018-05-08T22:59:05.464Z,15.10
2018-05-08T23:01:33.443Z,15.10
2018-05-08T23:04:03.827Z,15.20
2018-05-08T23:06:31.650Z,15.30
2018-05-08T23:08:59.557Z,15.30
2018-05-08T23:11:27.431Z,15.30
2018-05-08T23:13:55.331Z,15.30
2018-05-08T23:16:23.271Z,15.30
2018-05-08T23:18:51.164Z,15.30
2018-05-08T23:21:19.816Z,15.10
2018-05-08T23:26:29.239Z,15.00
2018-05-08T23:28:57.061Z,14.60
2018-05-08T23:31:24.872Z,14.40
2018-05-08T23:33:52.699Z,14.40
2018-05-08T23:36:21.349Z,14.50
2018-05-08T23:38:49.198Z,14.50
2018-05-08T23:41:17.081Z,14.60
2018-05-08T23:43:44.991Z,14.50
2018-05-08T23:48:56.500Z,14.40
2018-05-08T23:51:24.355Z,14.30
2018-05-08T23:53:52.182Z,14.40
2018-05-08T23:56:20.007Z,14.40
2018-05-08T23:58:47.832Z,14.40
